createdAt,value
2022-08-31T00:00:10.911Z,1024.57
2022-08-31T00:01:11.101Z,1024.57
2022-08-31T00:02:11.315Z,1024.54
2022-08-31T00:03:11.457Z,1024.53
2022-08-31T00:04:11.616Z,1024.54
2022-08-31T00:05:11.761Z,1024.55
2022-08-31T00:06:11.941Z,1024.51
2022-08-31T00:07:12.090Z,1024.50
2022-08-31T00:08:12.251Z,1024.50
2022-08-31T00:09:12.450Z,1024.46
2022-08-31T00:10:12.601Z,1024.44
2022-08-31T00:11:12.798Z,1024.44
2022-08-31T00:12:12.950Z,1024.44
2022-08-31T00:13:13.222Z,1024.47
2022-08-31T00:14:13.578Z,1024.44
2022-08-31T00:15:13.492Z,1024.43
2022-08-31T00:16:13.732Z,1024.46
2022-08-31T00:17:13.861Z,1024.50
2022-08-31T00:18:14.055Z,1024.47
2022-08-31T00:19:14.240Z,1024.54
2022-08-31T00:20:32.782Z,1024.49
2022-08-31T00:21:15.581Z,1024.56
2022-08-31T00:22:14.761Z,1024.58
2022-08-31T00:23:14.928Z,1024.58
2022-08-31T00:24:15.102Z,1024.55
2022-08-31T00:25:15.250Z,1024.55
2022-08-31T00:26:15.432Z,1024.48
2022-08-31T00:27:15.598Z,1024.55
2022-08-31T00:28:15.810Z,1024.51
2022-08-31T00:29:15.974Z,1024.50
2022-08-31T00:30:16.131Z,1024.54
2022-08-31T00:31:16.363Z,1024.48
2022-08-31T00:32:16.491Z,1024.51
2022-08-31T00:33:17.894Z,1024.49
2022-08-31T00:34:16.852Z,1024.50
2022-08-31T00:35:17.003Z,1024.51
2022-08-31T00:36:17.191Z,1024.51
2022-08-31T00:37:17.352Z,1024.52
2022-08-31T00:38:17.551Z,1024.54
2022-08-31T00:39:17.712Z,1024.57
2022-08-31T00:40:17.936Z,1024.59
2022-08-31T00:41:18.071Z,1024.59
2022-08-31T00:42:18.274Z,1024.64
2022-08-31T00:43:18.669Z,1024.64
2022-08-31T00:44:18.611Z,1024.66
2022-08-31T00:45:18.779Z,1024.65
2022-08-31T00:46:18.993Z,1024.64
2022-08-31T00:47:19.101Z,1024.65
2022-08-31T00:48:19.303Z,1024.68
2022-08-31T00:49:19.466Z,1024.69
2022-08-31T00:50:19.651Z,1024.72
2022-08-31T00:51:19.812Z,1024.72
2022-08-31T00:52:20.002Z,1024.71
2022-08-31T00:53:20.171Z,1024.73
2022-08-31T00:54:20.331Z,1024.77
2022-08-31T00:55:20.517Z,1024.76
2022-08-31T00:56:20.712Z,1024.76
2022-08-31T00:57:20.940Z,1024.73
2022-08-31T00:58:22.059Z,1024.78
2022-08-31T00:59:21.203Z,1024.75
2022-08-31T01:00:21.361Z,1024.80
2022-08-31T01:01:21.616Z,1024.80
2022-08-31T01:02:21.747Z,1024.81
2022-08-31T01:03:21.890Z,1024.85
2022-08-31T01:04:22.052Z,1024.77
2022-08-31T01:05:22.205Z,1024.77
2022-08-31T01:06:22.414Z,1024.79
2022-08-31T01:07:22.572Z,1024.84
2022-08-31T01:08:30.844Z,1024.82
2022-08-31T01:09:23.922Z,1024.78
2022-08-31T01:10:23.101Z,1024.86
2022-08-31T01:11:23.255Z,1024.83
2022-08-31T01:12:23.451Z,1024.86
2022-08-31T01:13:23.625Z,1024.86
2022-08-31T01:14:23.774Z,1024.84
2022-08-31T01:15:23.942Z,1024.86
2022-08-31T01:16:24.162Z,1024.86
2022-08-31T01:17:24.287Z,1024.82
2022-08-31T01:18:24.451Z,1024.77
2022-08-31T01:19:24.602Z,1024.80
2022-08-31T01:20:24.793Z,1024.83
2022-08-31T01:21:24.983Z,1024.80
2022-08-31T01:22:25.174Z,1024.83
2022-08-31T01:23:25.343Z,1024.80
2022-08-31T01:24:25.502Z,1024.80
2022-08-31T01:25:26.766Z,1024.79
2022-08-31T01:26:26.842Z,1024.81
2022-08-31T01:27:26.035Z,1024.81
2022-08-31T01:28:26.202Z,1024.83
2022-08-31T01:29:26.361Z,1024.81
2022-08-31T01:30:26.529Z,1024.84
2022-08-31T01:31:26.720Z,1024.82
2022-08-31T01:32:26.880Z,1024.82
2022-08-31T01:33:27.057Z,1024.81
2022-08-31T01:34:27.201Z,1024.83
2022-08-31T01:35:27.353Z,1024.85
2022-08-31T01:36:27.549Z,1024.85
2022-08-31T01:37:29.466Z,1024.83
2022-08-31T01:38:27.913Z,1024.85
2022-08-31T01:39:28.072Z,1024.86
2022-08-31T01:40:28.309Z,1024.88
2022-08-31T01:41:28.423Z,1024.86
2022-08-31T01:42:33.173Z,1024.82
2022-08-31T01:43:29.780Z,1024.86
2022-08-31T01:44:28.955Z,1024.93
2022-08-31T01:45:29.152Z,1024.87
2022-08-31T01:46:29.318Z,1024.90
2022-08-31T01:47:29.484Z,1024.90
2022-08-31T01:48:29.662Z,1024.90
2022-08-31T01:49:29.821Z,1024.92
2022-08-31T01:50:29.983Z,1024.89
2022-08-31T01:51:30.142Z,1024.91
2022-08-31T01:52:30.310Z,1024.90
2022-08-31T01:53:30.473Z,1024.87
2022-08-31T01:54:30.637Z,1024.88
2022-08-31T01:55:30.823Z,1024.86
2022-08-31T01:56:30.983Z,1024.85
2022-08-31T01:57:34.172Z,1024.88
2022-08-31T01:58:31.342Z,1024.86
2022-08-31T01:59:31.494Z,1024.83
2022-08-31T02:00:31.733Z,1024.81
2022-08-31T02:01:34.290Z,1024.85
2022-08-31T02:02:32.096Z,1024.84
2022-08-31T02:03:32.212Z,1024.83
2022-08-31T02:04:32.364Z,1024.77
2022-08-31T02:05:32.555Z,1024.82
2022-08-31T02:06:32.735Z,1024.80
2022-08-31T02:07:32.872Z,1024.82
2022-08-31T02:08:33.084Z,1024.78
2022-08-31T02:09:33.233Z,1024.79
2022-08-31T02:10:33.433Z,1024.81
2022-08-31T02:11:33.602Z,1024.83
2022-08-31T02:12:33.762Z,1024.80
2022-08-31T02:13:33.944Z,1024.78
2022-08-31T02:14:34.102Z,1024.81
2022-08-31T02:15:34.252Z,1024.79
2022-08-31T02:16:35.509Z,1024.79
2022-08-31T02:17:34.632Z,1024.79
2022-08-31T02:18:34.794Z,1024.79
2022-08-31T02:19:34.943Z,1024.76
2022-08-31T02:20:35.147Z,1024.74
2022-08-31T02:21:36.753Z,1024.77
2022-08-31T02:22:35.483Z,1024.73
2022-08-31T02:23:35.645Z,1024.75
2022-08-31T02:24:35.852Z,1024.74
2022-08-31T02:25:36.002Z,1024.75
2022-08-31T02:26:36.223Z,1024.73
2022-08-31T02:27:36.383Z,1024.77
2022-08-31T02:28:36.545Z,1024.72
2022-08-31T02:29:36.703Z,1024.69
2022-08-31T02:30:36.893Z,1024.72
2022-08-31T02:31:37.105Z,1024.67
2022-08-31T02:32:37.242Z,1024.70
2022-08-31T02:33:37.393Z,1024.71
2022-08-31T02:34:37.586Z,1024.69
2022-08-31T02:35:37.743Z,1024.69
2022-08-31T02:36:37.903Z,1024.72
2022-08-31T02:37:38.073Z,1024.74
2022-08-31T02:38:38.233Z,1024.75
2022-08-31T02:39:38.382Z,1024.74
2022-08-31T02:40:38.626Z,1024.74
2022-08-31T02:41:38.732Z,1024.75
2022-08-31T02:42:40.849Z,1024.69
2022-08-31T02:43:40.096Z,1024.71
2022-08-31T02:44:39.281Z,1024.73
2022-08-31T02:45:39.433Z,1024.72
2022-08-31T02:46:39.691Z,1024.72
2022-08-31T02:47:39.823Z,1024.70
2022-08-31T02:48:39.985Z,1024.72
2022-08-31T02:49:40.144Z,1024.71
2022-08-31T02:50:40.378Z,1024.75
2022-08-31T02:51:40.501Z,1024.74
2022-08-31T02:52:40.713Z,1024.71
2022-08-31T02:53:40.869Z,1024.75
2022-08-31T02:54:41.054Z,1024.74
2022-08-31T02:55:41.213Z,1024.74
2022-08-31T02:56:41.373Z,1024.71
2022-08-31T02:57:41.554Z,1024.70
2022-08-31T02:58:41.723Z,1024.72
2022-08-31T02:59:41.874Z,1024.67
2022-08-31T03:00:42.081Z,1024.65
2022-08-31T03:01:42.328Z,1024.68
2022-08-31T03:02:42.464Z,1024.66
2022-08-31T03:03:43.934Z,1024.66
2022-08-31T03:04:42.753Z,1024.63
2022-08-31T03:05:42.903Z,1024.63
2022-08-31T03:06:43.064Z,1024.65
2022-08-31T03:07:43.233Z,1024.61
2022-08-31T03:08:43.404Z,1024.63
2022-08-31T03:09:43.563Z,1024.56
2022-08-31T03:10:43.757Z,1024.60
2022-08-31T03:11:43.925Z,1024.58
2022-08-31T03:12:44.084Z,1024.58
2022-08-31T03:13:44.251Z,1024.60
2022-08-31T03:14:44.409Z,1024.53
2022-08-31T03:15:44.732Z,1024.56
2022-08-31T03:16:44.753Z,1024.55
2022-08-31T03:17:44.907Z,1024.53
2022-08-31T03:18:45.102Z,1024.54
2022-08-31T03:19:45.253Z,1024.53
2022-08-31T03:20:45.447Z,1024.50
2022-08-31T03:21:45.614Z,1024.52
2022-08-31T03:22:45.937Z,1024.51
2022-08-31T03:23:45.966Z,1024.51
2022-08-31T03:24:46.125Z,1024.52
2022-08-31T03:25:46.284Z,1024.54
2022-08-31T03:26:46.462Z,1024.54
2022-08-31T03:27:46.613Z,1024.52
2022-08-31T03:28:46.803Z,1024.52
2022-08-31T03:29:46.973Z,1024.50
2022-08-31T03:30:47.176Z,1024.57
2022-08-31T03:31:47.315Z,1024.54
2022-08-31T03:32:47.476Z,1024.56
2022-08-31T03:33:47.634Z,1024.58
2022-08-31T03:34:47.845Z,1024.58
2022-08-31T03:35:48.008Z,1024.62
2022-08-31T03:36:48.186Z,1024.59
2022-08-31T03:37:48.346Z,1024.60
2022-08-31T03:38:48.535Z,1024.58
2022-08-31T03:39:48.724Z,1024.63
2022-08-31T03:40:48.954Z,1024.65
2022-08-31T03:41:49.084Z,1024.65
2022-08-31T03:42:49.246Z,1024.65
2022-08-31T03:43:49.394Z,1024.71
2022-08-31T03:44:49.604Z,1024.69
2022-08-31T03:45:49.804Z,1024.67
2022-08-31T03:46:49.995Z,1024.72
2022-08-31T03:47:50.132Z,1024.68
2022-08-31T03:48:50.324Z,1024.71
2022-08-31T03:49:50.484Z,1024.70
2022-08-31T03:50:50.663Z,1024.71
2022-08-31T03:51:50.822Z,1024.73
2022-08-31T03:52:50.984Z,1024.74
2022-08-31T03:53:51.154Z,1024.74
2022-08-31T03:54:51.370Z,1024.76
2022-08-31T03:55:51.533Z,1024.77
2022-08-31T03:56:51.718Z,1024.77
2022-08-31T03:57:51.882Z,1024.82
2022-08-31T03:58:52.056Z,1024.83
2022-08-31T03:59:52.234Z,1024.84
2022-08-31T04:00:52.470Z,1024.80
2022-08-31T04:01:52.645Z,1024.83
2022-08-31T04:02:52.890Z,1024.85
2022-08-31T04:03:52.924Z,1024.86
2022-08-31T04:04:53.104Z,1024.86
2022-08-31T04:05:53.304Z,1024.87
2022-08-31T04:06:53.474Z,1024.88
2022-08-31T04:07:53.656Z,1024.89
2022-08-31T04:08:53.834Z,1024.90
2022-08-31T04:09:54.017Z,1024.92
2022-08-31T04:10:54.185Z,1024.90
2022-08-31T04:11:54.356Z,1024.91
2022-08-31T04:12:54.544Z,1024.92
2022-08-31T04:13:54.721Z,1024.92
2022-08-31T04:14:54.906Z,1024.96
2022-08-31T04:15:55.145Z,1024.93
2022-08-31T04:16:55.285Z,1024.95
2022-08-31T04:17:57.081Z,1024.96
2022-08-31T04:18:55.605Z,1024.98
2022-08-31T04:19:55.803Z,1024.97
2022-08-31T04:20:56.091Z,1025.01
2022-08-31T04:21:56.123Z,1025.01
2022-08-31T04:22:56.314Z,1025.03
2022-08-31T04:23:56.465Z,1025.02
2022-08-31T04:24:56.655Z,1025.01
2022-08-31T04:25:56.856Z,1025.00
2022-08-31T04:26:57.035Z,1025.03
2022-08-31T04:27:58.078Z,1025.05
2022-08-31T04:28:57.374Z,1025.07
2022-08-31T04:29:57.562Z,1025.07
2022-08-31T04:30:57.785Z,1025.05
2022-08-31T04:31:57.895Z,1025.05
2022-08-31T04:32:58.073Z,1025.06
2022-08-31T04:33:58.259Z,1025.12
2022-08-31T04:34:58.434Z,1025.11
2022-08-31T04:35:58.605Z,1025.10
2022-08-31T04:36:58.754Z,1025.13
2022-08-31T04:37:58.934Z,1025.13
2022-08-31T04:38:59.105Z,1025.14
2022-08-31T04:39:59.441Z,1025.13
2022-08-31T04:40:59.589Z,1025.12
2022-08-31T04:41:59.614Z,1025.09
2022-08-31T04:42:59.812Z,1025.13
2022-08-31T04:43:59.965Z,1025.12
2022-08-31T04:45:00.151Z,1025.09
2022-08-31T04:46:00.364Z,1025.12
2022-08-31T04:47:00.475Z,1025.12
2022-08-31T04:48:00.635Z,1025.11
2022-08-31T04:49:00.825Z,1025.11
2022-08-31T04:50:00.996Z,1025.11
2022-08-31T04:51:01.196Z,1025.12
2022-08-31T04:52:01.376Z,1025.08
2022-08-31T04:53:03.675Z,1025.10
2022-08-31T04:54:01.713Z,1025.04
2022-08-31T04:55:01.889Z,1025.04
2022-08-31T04:56:02.158Z,1025.04
2022-08-31T04:57:02.227Z,1025.02
2022-08-31T04:58:02.418Z,1025.08
2022-08-31T04:59:02.575Z,1025.06
2022-08-31T05:00:02.756Z,1025.04
2022-08-31T05:01:02.980Z,1025.06
2022-08-31T05:02:03.178Z,1025.09
2022-08-31T05:03:03.293Z,1025.09
2022-08-31T05:04:03.431Z,1025.03
2022-08-31T05:05:03.595Z,1025.03
2022-08-31T05:06:03.777Z,1025.06
2022-08-31T05:07:03.916Z,1025.07
2022-08-31T05:08:04.096Z,1025.04
2022-08-31T05:09:04.277Z,1025.05
2022-08-31T05:10:04.457Z,1025.03
2022-08-31T05:11:04.656Z,1025.04
2022-08-31T05:12:04.814Z,1025.04
2022-08-31T05:13:04.986Z,1025.08
2022-08-31T05:14:05.166Z,1025.06
2022-08-31T05:15:05.348Z,1025.09
2022-08-31T05:16:05.625Z,1025.10
2022-08-31T05:17:05.679Z,1025.00
2022-08-31T05:18:05.856Z,1025.02
2022-08-31T05:19:06.018Z,1025.07
2022-08-31T05:20:06.187Z,1025.04
2022-08-31T05:21:06.368Z,1025.11
2022-08-31T05:22:06.516Z,1025.01
2022-08-31T05:23:06.696Z,1025.04
2022-08-31T05:24:06.875Z,1025.11
2022-08-31T05:25:07.072Z,1025.05
2022-08-31T05:26:07.257Z,1025.07
2022-08-31T05:27:07.426Z,1025.08
2022-08-31T05:28:07.607Z,1025.06
2022-08-31T05:29:07.789Z,1025.11
2022-08-31T05:30:07.987Z,1025.04
2022-08-31T05:31:08.208Z,1025.08
2022-08-31T05:32:08.347Z,1025.11
2022-08-31T05:33:08.527Z,1025.10
2022-08-31T05:34:08.707Z,1025.12
2022-08-31T05:35:08.888Z,1025.15
2022-08-31T05:36:09.076Z,1025.13
2022-08-31T05:37:09.237Z,1025.12
2022-08-31T05:38:09.422Z,1025.11
2022-08-31T05:39:09.597Z,1025.18
2022-08-31T05:40:09.833Z,1025.14
2022-08-31T05:41:09.958Z,1025.13
2022-08-31T05:42:10.106Z,1025.13
2022-08-31T05:43:10.277Z,1025.18
2022-08-31T05:44:10.477Z,1025.15
2022-08-31T05:45:10.617Z,1025.16
2022-08-31T05:46:10.918Z,1025.17
2022-08-31T05:47:10.997Z,1025.18
2022-08-31T05:48:11.157Z,1025.18
2022-08-31T05:49:11.559Z,1025.18
2022-08-31T05:50:11.508Z,1025.18
2022-08-31T05:51:11.711Z,1025.19
2022-08-31T05:52:11.848Z,1025.23
2022-08-31T05:53:12.156Z,1025.21
2022-08-31T05:54:12.188Z,1025.21
2022-08-31T05:55:12.358Z,1025.21
2022-08-31T05:56:12.556Z,1025.28
2022-08-31T05:57:12.698Z,1025.27
2022-08-31T05:58:12.879Z,1025.25
2022-08-31T05:59:13.059Z,1025.28
2022-08-31T06:00:13.238Z,1025.28
2022-08-31T06:01:13.455Z,1025.27
2022-08-31T06:02:13.627Z,1025.27
2022-08-31T06:03:13.796Z,1025.28
2022-08-31T06:04:13.948Z,1025.28
2022-08-31T06:05:14.201Z,1025.32
2022-08-31T06:06:14.346Z,1025.26
2022-08-31T06:07:14.488Z,1025.29
2022-08-31T06:08:15.402Z,1025.27
2022-08-31T06:09:14.830Z,1025.31
2022-08-31T06:10:15.030Z,1025.27
2022-08-31T06:11:15.208Z,1025.32
2022-08-31T06:12:15.357Z,1025.28
2022-08-31T06:13:15.548Z,1025.30
2022-08-31T06:14:15.700Z,1025.31
2022-08-31T06:15:15.889Z,1025.32
2022-08-31T06:16:16.150Z,1025.31
2022-08-31T06:17:16.237Z,1025.30
2022-08-31T06:18:16.419Z,1025.32
2022-08-31T06:19:16.602Z,1025.35
2022-08-31T06:20:17.875Z,1025.34
2022-08-31T06:21:16.969Z,1025.29
2022-08-31T06:22:17.129Z,1025.34
2022-08-31T06:23:17.343Z,1025.31
2022-08-31T06:24:17.467Z,1025.32
2022-08-31T06:25:17.649Z,1025.33
2022-08-31T06:26:17.840Z,1025.38
2022-08-31T06:27:18.005Z,1025.37
2022-08-31T06:28:18.166Z,1025.38
2022-08-31T06:29:18.340Z,1025.42
2022-08-31T06:30:18.528Z,1025.44
2022-08-31T06:31:18.737Z,1025.44
2022-08-31T06:32:18.860Z,1025.46
2022-08-31T06:33:19.206Z,1025.42
2022-08-31T06:34:19.210Z,1025.42
2022-08-31T06:35:19.391Z,1025.39
2022-08-31T06:36:19.580Z,1025.37
2022-08-31T06:37:19.740Z,1025.40
2022-08-31T06:38:19.920Z,1025.35
2022-08-31T06:39:20.125Z,1025.40
2022-08-31T06:40:20.303Z,1025.40
2022-08-31T06:41:20.450Z,1025.42
2022-08-31T06:42:20.630Z,1025.40
2022-08-31T06:43:20.918Z,1025.38
2022-08-31T06:44:20.983Z,1025.44
2022-08-31T06:45:21.200Z,1025.45
2022-08-31T06:46:21.406Z,1025.40
2022-08-31T06:47:24.156Z,1025.48
2022-08-31T06:48:21.700Z,1025.45
2022-08-31T06:49:21.843Z,1025.46
2022-08-31T06:50:22.039Z,1025.48
2022-08-31T06:51:22.180Z,1025.46
2022-08-31T06:52:22.380Z,1025.47
2022-08-31T06:53:22.555Z,1025.45
2022-08-31T06:54:30.728Z,1025.49
2022-08-31T06:55:23.861Z,1025.50
2022-08-31T06:56:23.021Z,1025.52
2022-08-31T06:57:23.206Z,1025.52
2022-08-31T06:58:23.381Z,1025.50
2022-08-31T06:59:28.247Z,1025.51
2022-08-31T07:00:24.821Z,1025.53
2022-08-31T07:01:35.391Z,1025.51
2022-08-31T07:02:25.166Z,1025.52
2022-08-31T07:03:24.276Z,1025.49
2022-08-31T07:04:24.435Z,1025.51
2022-08-31T07:05:24.980Z,1025.54
2022-08-31T07:06:24.761Z,1025.59
2022-08-31T07:07:24.931Z,1025.55
2022-08-31T07:08:25.113Z,1025.55
2022-08-31T07:09:25.291Z,1025.59
2022-08-31T07:10:25.492Z,1025.62
2022-08-31T07:11:25.660Z,1025.59
2022-08-31T07:12:25.832Z,1025.65
2022-08-31T07:13:26.022Z,1025.61
2022-08-31T07:14:26.172Z,1025.68
2022-08-31T07:15:26.343Z,1025.66
2022-08-31T07:16:26.551Z,1025.62
2022-08-31T07:17:26.652Z,1025.61
2022-08-31T07:18:26.851Z,1025.58
2022-08-31T07:19:27.011Z,1025.56
2022-08-31T07:20:27.213Z,1025.58
2022-08-31T07:21:27.376Z,1025.53
2022-08-31T07:22:27.580Z,1025.55
2022-08-31T07:23:27.763Z,1025.53
2022-08-31T07:24:27.936Z,1025.54
2022-08-31T07:25:28.151Z,1025.51
2022-08-31T07:26:28.273Z,1025.50
2022-08-31T07:27:28.453Z,1025.52
2022-08-31T07:28:28.635Z,1025.50
2022-08-31T07:29:28.813Z,1025.49
2022-08-31T07:30:33.223Z,1025.50
2022-08-31T07:31:29.166Z,1025.52
2022-08-31T07:32:29.344Z,1025.51
2022-08-31T07:33:29.523Z,1025.50
2022-08-31T07:34:29.705Z,1025.50
2022-08-31T07:35:29.903Z,1025.52
2022-08-31T07:36:30.044Z,1025.49
2022-08-31T07:37:30.215Z,1025.54
2022-08-31T07:38:30.405Z,1025.53
2022-08-31T07:39:30.574Z,1025.53
2022-08-31T07:40:30.810Z,1025.48
2022-08-31T07:41:30.934Z,1025.51
2022-08-31T07:42:31.077Z,1025.53
2022-08-31T07:43:31.256Z,1025.48
2022-08-31T07:44:31.415Z,1025.47
2022-08-31T07:45:35.612Z,1025.51
2022-08-31T07:46:32.797Z,1025.51
2022-08-31T07:47:31.933Z,1025.47
2022-08-31T07:48:32.086Z,1025.48
2022-08-31T07:49:32.266Z,1025.43
2022-08-31T07:50:32.474Z,1025.46
2022-08-31T07:51:32.636Z,1025.43
2022-08-31T07:52:32.827Z,1025.44
2022-08-31T07:53:32.996Z,1025.48
2022-08-31T07:54:33.178Z,1025.44
2022-08-31T07:55:33.358Z,1025.48
2022-08-31T07:56:35.008Z,1025.46
2022-08-31T07:57:33.697Z,1025.44
2022-08-31T07:58:33.888Z,1025.44
2022-08-31T07:59:34.057Z,1025.44
2022-08-31T08:00:34.258Z,1025.43
2022-08-31T08:01:36.078Z,1025.40
2022-08-31T08:02:34.690Z,1025.42
2022-08-31T08:03:34.789Z,1025.40
2022-08-31T08:04:35.003Z,1025.44
2022-08-31T08:05:35.512Z,1025.44
2022-08-31T08:06:35.316Z,1025.39
2022-08-31T08:07:35.487Z,1025.39
2022-08-31T08:08:35.688Z,1025.37
2022-08-31T08:09:35.850Z,1025.34
2022-08-31T08:10:36.057Z,1025.36
2022-08-31T08:11:36.211Z,1025.42
2022-08-31T08:12:36.390Z,1025.37
2022-08-31T08:13:36.541Z,1025.38
2022-08-31T08:14:36.721Z,1025.37
2022-08-31T08:15:36.902Z,1025.38
2022-08-31T08:16:37.118Z,1025.41
2022-08-31T08:17:37.254Z,1025.34
2022-08-31T08:18:37.442Z,1025.33
2022-08-31T08:19:37.623Z,1025.37
2022-08-31T08:20:39.018Z,1025.34
2022-08-31T08:21:37.952Z,1025.32
2022-08-31T08:22:51.438Z,1025.31
2022-08-31T08:23:39.365Z,1025.32
2022-08-31T08:24:38.484Z,1025.30
2022-08-31T08:25:38.677Z,1025.26
2022-08-31T08:26:38.854Z,1025.28
2022-08-31T08:27:39.026Z,1025.30
2022-08-31T08:28:40.893Z,1025.30
2022-08-31T08:29:39.374Z,1025.34
2022-08-31T08:30:39.573Z,1025.29
2022-08-31T08:31:39.793Z,1025.32
2022-08-31T08:32:39.923Z,1025.32
2022-08-31T08:33:40.146Z,1025.29
2022-08-31T08:34:40.299Z,1025.30
2022-08-31T08:35:40.466Z,1025.29
2022-08-31T08:36:40.620Z,1025.31
2022-08-31T08:37:57.249Z,1025.30
2022-08-31T08:38:42.057Z,1025.30
2022-08-31T08:39:41.147Z,1025.31
2022-08-31T08:40:41.438Z,1025.29
2022-08-31T08:41:41.507Z,1025.29
2022-08-31T08:42:41.683Z,1025.25
2022-08-31T08:43:43.733Z,1025.25
2022-08-31T08:44:42.036Z,1025.25
2022-08-31T08:45:42.290Z,1025.21
2022-08-31T08:46:42.459Z,1025.24
2022-08-31T08:47:42.578Z,1025.28
2022-08-31T08:48:42.729Z,1025.20
2022-08-31T08:49:42.920Z,1025.27
2022-08-31T08:50:43.150Z,1025.18
2022-08-31T08:51:43.289Z,1025.26
2022-08-31T08:52:43.475Z,1025.26
2022-08-31T08:53:43.640Z,1025.23
2022-08-31T08:54:43.835Z,1025.29
2022-08-31T08:55:44.027Z,1025.30
2022-08-31T08:56:44.183Z,1025.23
2022-08-31T08:57:44.355Z,1025.30
2022-08-31T08:58:44.531Z,1025.33
2022-08-31T08:59:44.701Z,1025.30
2022-08-31T09:00:44.932Z,1025.31
2022-08-31T09:01:45.094Z,1025.30
2022-08-31T09:02:45.327Z,1025.29
2022-08-31T09:03:45.423Z,1025.23
2022-08-31T09:04:45.603Z,1025.31
2022-08-31T09:05:45.795Z,1025.26
2022-08-31T09:06:47.644Z,1025.28
2022-08-31T09:07:46.124Z,1025.31
2022-08-31T09:08:46.295Z,1025.24
2022-08-31T09:09:46.455Z,1025.24
2022-08-31T09:10:46.646Z,1025.29
2022-08-31T09:11:46.824Z,1025.33
2022-08-31T09:12:46.997Z,1025.28
2022-08-31T09:13:47.185Z,1025.29
2022-08-31T09:14:47.340Z,1025.22
2022-08-31T09:15:47.545Z,1025.27
2022-08-31T09:16:47.698Z,1025.22
2022-08-31T09:17:47.886Z,1025.25
2022-08-31T09:18:48.057Z,1025.23
2022-08-31T09:19:48.238Z,1025.22
2022-08-31T09:20:48.417Z,1025.20
2022-08-31T09:21:48.588Z,1025.14
2022-08-31T09:22:48.767Z,1025.21
2022-08-31T09:23:48.948Z,1025.13
2022-08-31T09:24:52.082Z,1025.22
2022-08-31T09:25:49.311Z,1025.20
2022-08-31T09:26:49.481Z,1025.17
2022-08-31T09:27:49.697Z,1025.18
2022-08-31T09:28:49.819Z,1025.19
2022-08-31T09:29:50.003Z,1025.17
2022-08-31T09:30:50.220Z,1025.15
2022-08-31T09:31:50.331Z,1025.12
2022-08-31T09:32:50.501Z,1025.25
2022-08-31T09:33:50.683Z,1025.15
2022-08-31T09:34:50.881Z,1025.16
2022-08-31T09:35:51.133Z,1025.07
2022-08-31T09:36:51.192Z,1025.23
2022-08-31T09:37:51.381Z,1025.07
2022-08-31T09:38:51.534Z,1025.21
2022-08-31T09:39:51.714Z,1025.15
2022-08-31T09:40:51.992Z,1025.08
2022-08-31T09:41:52.081Z,1025.10
2022-08-31T09:42:52.247Z,1025.14
2022-08-31T09:43:52.445Z,1025.15
2022-08-31T09:44:52.629Z,1025.13
2022-08-31T09:45:52.837Z,1025.13
2022-08-31T09:46:52.976Z,1025.11
2022-08-31T09:47:53.157Z,1025.11
2022-08-31T09:48:53.325Z,1025.14
2022-08-31T09:49:53.526Z,1025.08
2022-08-31T09:50:53.675Z,1025.05
2022-08-31T09:51:53.846Z,1025.02
2022-08-31T09:52:54.016Z,1025.02
2022-08-31T09:53:54.197Z,1025.01
2022-08-31T09:54:54.366Z,1025.05
2022-08-31T09:55:54.570Z,1024.98
2022-08-31T09:56:54.708Z,1024.98
2022-08-31T09:57:54.894Z,1024.93
2022-08-31T09:58:55.071Z,1024.93
2022-08-31T09:59:55.234Z,1024.98
2022-08-31T10:00:55.477Z,1025.01
2022-08-31T10:01:55.569Z,1024.92
2022-08-31T10:02:55.749Z,1025.00
2022-08-31T10:03:55.938Z,1024.98
2022-08-31T10:04:56.163Z,1024.95
2022-08-31T10:05:56.309Z,1024.90
2022-08-31T10:06:56.459Z,1024.98
2022-08-31T10:07:56.629Z,1024.91
2022-08-31T10:08:56.800Z,1024.98
2022-08-31T10:09:57.903Z,1024.94
2022-08-31T10:10:57.180Z,1025.00
2022-08-31T10:11:57.353Z,1024.98
2022-08-31T10:12:57.503Z,1024.92
2022-08-31T10:13:57.691Z,1024.89
2022-08-31T10:14:57.873Z,1025.01
2022-08-31T10:15:58.135Z,1025.00
2022-08-31T10:16:58.203Z,1025.00
2022-08-31T10:17:58.380Z,1024.99
2022-08-31T10:18:58.553Z,1024.96
2022-08-31T10:19:58.723Z,1024.88
2022-08-31T10:20:58.912Z,1024.96
2022-08-31T10:21:59.064Z,1024.98
2022-08-31T10:22:59.242Z,1025.01
2022-08-31T10:23:59.423Z,1025.01
2022-08-31T10:24:59.594Z,1024.98
2022-08-31T10:25:59.784Z,1024.97
2022-08-31T10:26:59.964Z,1024.96
2022-08-31T10:28:00.143Z,1025.01
2022-08-31T10:29:00.315Z,1025.00
2022-08-31T10:30:00.494Z,1024.98
2022-08-31T10:31:00.712Z,1025.00
2022-08-31T10:32:00.865Z,1025.00
2022-08-31T10:33:01.015Z,1024.98
2022-08-31T10:34:01.195Z,1024.99
2022-08-31T10:35:01.418Z,1024.96
2022-08-31T10:36:01.535Z,1024.96
2022-08-31T10:37:01.675Z,1024.96
2022-08-31T10:38:01.855Z,1025.02
2022-08-31T10:39:02.035Z,1024.97
2022-08-31T10:40:02.282Z,1024.94
2022-08-31T10:41:02.396Z,1024.99
2022-08-31T10:42:02.548Z,1024.97
2022-08-31T10:43:02.722Z,1024.98
2022-08-31T10:44:02.896Z,1025.00
2022-08-31T10:45:03.079Z,1025.00
2022-08-31T10:46:03.309Z,1024.95
2022-08-31T10:47:03.417Z,1024.94
2022-08-31T10:48:03.609Z,1025.01
2022-08-31T10:49:03.820Z,1024.98
2022-08-31T10:50:03.968Z,1024.94
2022-08-31T10:51:04.127Z,1024.90
2022-08-31T10:52:04.308Z,1024.94
2022-08-31T10:53:04.478Z,1024.93
2022-08-31T10:54:04.658Z,1024.90
2022-08-31T10:55:04.856Z,1024.92
2022-08-31T10:56:04.997Z,1024.95
2022-08-31T10:57:05.177Z,1024.86
2022-08-31T10:58:05.339Z,1024.86
2022-08-31T10:59:05.519Z,1024.87
2022-08-31T11:00:05.698Z,1024.89
2022-08-31T11:01:05.871Z,1024.93
2022-08-31T11:02:06.029Z,1024.88
2022-08-31T11:03:06.180Z,1024.88
2022-08-31T11:04:06.390Z,1024.86
2022-08-31T11:05:06.559Z,1024.83
2022-08-31T11:06:06.709Z,1024.83
2022-08-31T11:07:06.889Z,1024.78
2022-08-31T11:08:07.069Z,1024.79
2022-08-31T11:09:07.267Z,1024.83
2022-08-31T11:10:07.451Z,1024.81
2022-08-31T11:11:07.622Z,1024.85
2022-08-31T11:12:07.758Z,1024.79
2022-08-31T11:13:07.932Z,1024.83
2022-08-31T11:14:08.110Z,1024.80
2022-08-31T11:15:08.301Z,1024.78
2022-08-31T11:16:08.583Z,1024.78
2022-08-31T11:17:12.164Z,1024.76
2022-08-31T11:18:08.802Z,1024.73
2022-08-31T11:19:09.606Z,1024.74
2022-08-31T11:20:09.171Z,1024.73
2022-08-31T11:21:09.322Z,1024.73
2022-08-31T11:22:09.462Z,1024.72
2022-08-31T11:23:09.639Z,1024.69
2022-08-31T11:24:09.812Z,1024.78
2022-08-31T11:25:10.003Z,1024.74
2022-08-31T11:26:10.152Z,1024.71
2022-08-31T11:27:10.312Z,1024.73
2022-08-31T11:28:10.473Z,1024.73
2022-08-31T11:29:10.633Z,1024.73
2022-08-31T11:30:10.813Z,1024.66
2022-08-31T11:31:11.006Z,1024.61
2022-08-31T11:32:11.128Z,1024.65
2022-08-31T11:33:11.334Z,1024.61
2022-08-31T11:34:18.577Z,1024.62
2022-08-31T11:35:12.683Z,1024.62
2022-08-31T11:36:11.803Z,1024.69
2022-08-31T11:37:11.944Z,1024.72
2022-08-31T11:38:12.134Z,1024.68
2022-08-31T11:39:12.282Z,1024.73
2022-08-31T11:40:12.508Z,1024.72
2022-08-31T11:41:12.635Z,1024.69
2022-08-31T11:42:12.823Z,1024.69
2022-08-31T11:43:12.994Z,1024.69
2022-08-31T11:44:13.174Z,1024.68
2022-08-31T11:45:14.215Z,1024.67
2022-08-31T11:46:17.354Z,1024.65
2022-08-31T11:47:13.695Z,1024.69
2022-08-31T11:48:13.892Z,1024.63
2022-08-31T11:49:14.046Z,1024.61
2022-08-31T11:50:14.228Z,1024.59
2022-08-31T11:51:14.370Z,1024.56
2022-08-31T11:52:14.529Z,1024.60
2022-08-31T11:53:14.874Z,1024.63
2022-08-31T11:54:14.888Z,1024.54
2022-08-31T11:55:15.077Z,1024.57
2022-08-31T11:56:15.266Z,1024.55
2022-08-31T11:57:15.468Z,1024.57
2022-08-31T11:58:20.964Z,1024.55
2022-08-31T11:59:16.787Z,1024.53
2022-08-31T12:00:15.979Z,1024.59
2022-08-31T12:01:16.127Z,1024.54
2022-08-31T12:02:16.313Z,1024.60
2022-08-31T12:03:16.458Z,1024.57
2022-08-31T12:04:20.560Z,1024.53
2022-08-31T12:05:17.849Z,1024.45
2022-08-31T12:06:16.969Z,1024.46
2022-08-31T12:07:17.139Z,1024.46